Time;durP1;ratioP1;P1;durP2;ratioP2;P2;SDS_P1;SDS_P2;PMS_P1;PMS_P2;Temp;Humidity;BMP_temperature;BMP_pressure;BME280_temperature;BME280_humidity;BME280_pressure;Samples;Min_cycle;Max_cycle;Signal;HPM_P1;HPM_P2
2022/04/25 00:01:31;;;;;;;9.25;5.82;;;;;;;;;;5091098;28;20048;-70
2022/04/25 00:03:58;;;;;;;14.50;6.43;;;;;;;;;;5091028;28;20057;-70
2022/04/25 00:06:24;;;;;;;12.00;6.03;;;;;;;;;;5090788;28;20082;-69
2022/04/25 00:08:50;;;;;;;9.32;6.45;;;;;;;;;;5089937;28;20059;-69
2022/04/25 00:11:17;;;;;;;13.63;5.85;;;;;;;;;;5091638;28;20056;-69
2022/04/25 00:13:43;;;;;;;12.15;6.82;;;;;;;;;;5090343;28;20500;-70
2022/04/25 00:16:09;;;;;;;10.00;6.20;;;;;;;;;;5095846;28;20054;-70
2022/04/25 00:18:36;;;;;;;12.48;6.13;;;;;;;;;;5095764;28;20053;-70
2022/04/25 00:21:02;;;;;;;9.15;6.60;;;;;;;;;;5094551;28;20063;-70
2022/04/25 00:23:29;;;;;;;7.78;5.85;;;;;;;;;;5095575;28;20052;-70
2022/04/25 00:25:55;;;;;;;10.73;6.68;;;;;;;;;;5076290;28;20136;-70
2022/04/25 00:28:21;;;;;;;10.98;6.38;;;;;;;;;;5098011;28;20426;-70
2022/04/25 00:30:48;;;;;;;9.38;6.70;;;;;;;;;;5094923;28;20071;-70
2022/04/25 00:33:17;;;;;;;10.73;7.53;;;;;;;;;;5094658;28;20064;-70
2022/04/25 00:35:43;;;;;;;15.60;7.18;;;;;;;;;;5091793;28;20581;-70
2022/04/25 00:38:10;;;;;;;13.15;6.50;;;;;;;;;;5093375;28;20143;-71
2022/04/25 00:40:36;;;;;;;12.80;6.97;;;;;;;;;;5094977;27;20049;-71
2022/04/25 00:43:03;;;;;;;9.52;6.05;;;;;;;;;;5094490;28;20123;-70
2022/04/25 00:45:31;;;;;;;13.98;6.65;;;;;;;;;;5095353;28;20051;-70
2022/04/25 00:47:58;;;;;;;12.10;7.22;;;;;;;;;;5094572;28;20102;-70
2022/04/25 00:50:24;;;;;;;11.13;7.85;;;;;;;;;;5094290;28;20136;-70
2022/04/25 00:52:51;;;;;;;10.40;6.47;;;;;;;;;;5095037;28;20052;-70
2022/04/25 00:55:17;;;;;;;12.90;6.90;;;;;;;;;;5094934;28;20514;-71
2022/04/25 00:57:43;;;;;;;15.43;7.32;;;;;;;;;;5105316;28;20060;-70
2022/04/25 01:00:11;;;;;;;13.13;7.38;;;;;;;;;;5094176;28;20055;-71
2022/04/25 01:02:39;;;;;;;15.18;6.75;;;;;;;;;;5094822;28;20052;-70
2022/04/25 01:05:06;;;;;;;11.98;7.40;;;;;;;;;;5093181;28;20098;-70
2022/04/25 01:07:36;;;;;;;11.52;6.82;;;;;;;;;;5094407;28;20056;-70
2022/04/25 01:10:06;;;;;;;10.18;6.65;;;;;;;;;;5106655;28;20052;-71
2022/04/25 01:12:33;;;;;;;9.48;6.53;;;;;;;;;;5099141;28;20048;-69
2022/04/25 01:15:00;;;;;;;16.73;7.85;;;;;;;;;;5094165;28;20055;-69
2022/04/25 01:17:26;;;;;;;11.80;6.47;;;;;;;;;;5094407;28;20060;-69
2022/04/25 01:19:54;;;;;;;10.05;7.40;;;;;;;;;;5093400;28;20056;-70
2022/04/25 01:22:35;;;;;;;13.40;7.63;;;;;;;;;;5093778;28;20052;-69
2022/04/25 01:27:47;;;;;;;14.40;8.30;;;;;;;;;;5092476;28;20056;-70
2022/04/25 01:30:13;;;;;;;12.52;7.50;;;;;;;;;;5104360;28;20063;-69
2022/04/25 01:32:40;;;;;;;17.23;7.97;;;;;;;;;;5094647;28;20147;-69
2022/04/25 01:35:07;;;;;;;13.15;6.82;;;;;;;;;;5094452;28;20059;-69
2022/04/25 01:37:33;;;;;;;17.52;7.60;;;;;;;;;;5096721;28;20064;-69
2022/04/25 01:40:00;;;;;;;15.15;8.32;;;;;;;;;;5093917;28;20506;-69
2022/04/25 01:42:26;;;;;;;12.43;7.32;;;;;;;;;;5094561;28;20064;-70
2022/04/25 01:44:52;;;;;;;19.73;9.25;;;;;;;;;;5092358;28;20056;-70
2022/04/25 01:47:19;;;;;;;15.95;8.45;;;;;;;;;;5095358;27;20047;-70
2022/04/25 01:49:45;;;;;;;10.65;7.38;;;;;;;;;;5093804;28;20053;-69
2022/04/25 01:52:17;;;;;;;14.55;8.52;;;;;;;;;;5093446;28;20071;-69
2022/04/25 01:54:43;;;;;;;10.55;7.32;;;;;;;;;;5091911;28;20052;-71
2022/04/25 01:57:10;;;;;;;15.75;7.78;;;;;;;;;;5099974;28;20060;-71
2022/04/25 01:59:36;;;;;;;13.95;8.57;;;;;;;;;;5094884;27;20507;-70
2022/04/25 02:02:03;;;;;;;15.32;8.70;;;;;;;;;;5093685;28;20053;-70
2022/04/25 02:04:29;;;;;;;16.15;9.02;;;;;;;;;;5094096;28;20056;-70
2022/04/25 02:06:57;;;;;;;14.57;8.27;;;;;;;;;;5094099;28;20052;-70
2022/04/25 02:09:23;;;;;;;17.77;8.25;;;;;;;;;;5092225;28;20064;-70
2022/04/25 02:11:50;;;;;;;16.92;8.98;;;;;;;;;;5094413;28;20052;-70
2022/04/25 02:14:16;;;;;;;15.27;8.38;;;;;;;;;;5092669;28;20052;-70
2022/04/25 02:16:42;;;;;;;14.43;8.75;;;;;;;;;;5093583;28;20059;-70
2022/04/25 02:19:09;;;;;;;12.43;9.10;;;;;;;;;;5092572;28;20048;-69
2022/04/25 02:21:35;;;;;;;15.13;8.82;;;;;;;;;;5092935;28;20063;-70
2022/04/25 02:24:02;;;;;;;11.27;7.88;;;;;;;;;;5077178;28;20056;-70
2022/04/25 02:26:29;;;;;;;12.88;8.55;;;;;;;;;;5089279;28;20056;-69
2022/04/25 02:28:55;;;;;;;13.50;7.75;;;;;;;;;;5093566;28;20081;-69
2022/04/25 02:31:22;;;;;;;19.30;7.93;;;;;;;;;;5093380;28;20136;-70
2022/04/25 02:33:48;;;;;;;15.07;8.65;;;;;;;;;;5093151;28;20186;-70
2022/04/25 02:36:15;;;;;;;14.63;8.60;;;;;;;;;;5092286;28;20062;-70
2022/04/25 02:38:41;;;;;;;14.02;8.32;;;;;;;;;;5093368;28;20048;-69
2022/04/25 02:41:10;;;;;;;17.30;8.57;;;;;;;;;;5093627;28;20056;-69
2022/04/25 02:43:40;;;;;;;12.75;8.65;;;;;;;;;;5093376;28;20055;-70
2022/04/25 02:46:08;;;;;;;13.82;7.63;;;;;;;;;;5092836;28;20072;-70
2022/04/25 02:48:35;;;;;;;13.60;9.00;;;;;;;;;;5093183;28;20083;-70
2022/04/25 02:51:02;;;;;;;13.18;8.18;;;;;;;;;;5095890;28;20092;-70
2022/04/25 02:53:28;;;;;;;17.35;8.40;;;;;;;;;;5092751;28;20063;-70
2022/04/25 02:55:54;;;;;;;15.38;8.52;;;;;;;;;;5092844;28;20064;-70
2022/04/25 02:58:21;;;;;;;14.93;8.90;;;;;;;;;;5093135;28;20055;-70
2022/04/25 03:00:48;;;;;;;15.05;8.27;;;;;;;;;;5091425;28;20504;-70
2022/04/25 03:03:15;;;;;;;14.55;8.38;;;;;;;;;;5092737;28;20099;-70
2022/04/25 03:05:43;;;;;;;16.55;9.20;;;;;;;;;;5091838;28;20053;-70
2022/04/25 03:08:13;;;;;;;15.75;9.52;;;;;;;;;;5092928;28;20633;-70
2022/04/25 03:10:42;;;;;;;13.05;9.05;;;;;;;;;;5092920;28;20118;-70
2022/04/25 03:13:09;;;;;;;10.77;8.00;;;;;;;;;;5092140;28;20051;-70
2022/04/25 03:15:38;;;;;;;12.27;8.20;;;;;;;;;;5093078;28;20052;-70
2022/04/25 03:18:05;;;;;;;19.52;9.10;;;;;;;;;;5092893;28;20128;-70
2022/04/25 03:20:32;;;;;;;12.10;8.30;;;;;;;;;;5088303;28;20439;-70
2022/04/25 03:22:58;;;;;;;13.25;8.90;;;;;;;;;;5092992;28;20054;-70
2022/04/25 03:25:24;;;;;;;14.32;8.82;;;;;;;;;;5092017;28;20497;-70
2022/04/25 03:27:51;;;;;;;15.82;9.38;;;;;;;;;;5092937;28;20056;-70
2022/04/25 03:30:17;;;;;;;13.25;8.80;;;;;;;;;;5092569;28;20052;-70
2022/04/25 03:32:45;;;;;;;18.88;9.75;;;;;;;;;;5095327;28;20060;-70
2022/04/25 03:35:17;;;;;;;16.25;9.45;;;;;;;;;;5093156;28;20132;-69
2022/04/25 03:37:46;;;;;;;19.50;8.95;;;;;;;;;;5092654;28;20051;-70
2022/04/25 03:40:13;;;;;;;16.00;9.85;;;;;;;;;;5092362;28;20052;-70
2022/04/25 03:42:40;;;;;;;20.17;10.75;;;;;;;;;;5092309;28;20500;-70
2022/04/25 03:45:09;;;;;;;17.80;9.32;;;;;;;;;;5091591;28;20055;-70
2022/04/25 03:47:36;;;;;;;14.77;9.32;;;;;;;;;;5091891;28;20055;-70
2022/04/25 03:50:03;;;;;;;15.55;8.82;;;;;;;;;;5090681;28;20053;-70
2022/04/25 03:52:29;;;;;;;15.65;9.05;;;;;;;;;;5091170;28;20397;-70
2022/04/25 03:57:40;;;;;;;16.17;9.63;;;;;;;;;;5092491;28;20079;-69
2022/04/25 04:00:07;;;;;;;13.82;9.02;;;;;;;;;;5093562;28;20065;-70
2022/04/25 04:02:33;;;;;;;17.90;9.48;;;;;;;;;;5098871;27;20052;-70
2022/04/25 04:05:00;;;;;;;15.05;9.55;;;;;;;;;;5096466;28;20054;-70
2022/04/25 04:07:26;;;;;;;15.18;10.35;;;;;;;;;;5091928;28;20067;-70
2022/04/25 04:09:53;;;;;;;14.07;8.75;;;;;;;;;;5091784;28;20049;-70
2022/04/25 04:12:20;;;;;;;16.95;10.45;;;;;;;;;;5091888;28;20051;-70
2022/04/25 04:14:46;;;;;;;14.85;9.95;;;;;;;;;;5091195;28;20060;-70
2022/04/25 04:17:14;;;;;;;18.63;10.15;;;;;;;;;;5091285;28;20506;-70
2022/04/25 04:19:41;;;;;;;16.60;10.35;;;;;;;;;;5092281;28;20404;-69
2022/04/25 04:22:07;;;;;;;14.52;9.43;;;;;;;;;;5092038;28;20495;-69
2022/04/25 04:24:37;;;;;;;13.73;9.63;;;;;;;;;;5095182;28;20044;-70
2022/04/25 04:27:04;;;;;;;17.63;10.80;;;;;;;;;;5091937;28;20055;-70
2022/04/25 04:29:31;;;;;;;18.85;10.70;;;;;;;;;;5091853;28;20079;-69
2022/04/25 04:31:58;;;;;;;20.55;11.10;;;;;;;;;;5091341;28;20044;-70
2022/04/25 04:34:24;;;;;;;21.08;11.25;;;;;;;;;;5091037;28;20052;-70
2022/04/25 04:36:51;;;;;;;14.23;9.52;;;;;;;;;;5091189;28;20510;-70
2022/04/25 04:39:18;;;;;;;18.38;10.75;;;;;;;;;;5091041;28;20151;-69
2022/04/25 04:41:44;;;;;;;20.42;10.52;;;;;;;;;;5091345;28;20519;-70
2022/04/25 04:44:11;;;;;;;14.65;10.63;;;;;;;;;;5090893;28;20053;-70
2022/04/25 04:46:37;;;;;;;17.40;10.90;;;;;;;;;;5090486;28;20063;-69
2022/04/25 04:49:04;;;;;;;20.95;11.43;;;;;;;;;;5090879;28;20060;-70
2022/04/25 04:51:30;;;;;;;17.15;12.38;;;;;;;;;;5090682;28;20059;-69
2022/04/25 04:53:59;;;;;;;21.35;12.98;;;;;;;;;;5091025;28;20601;-69
2022/04/25 04:56:26;;;;;;;15.35;11.60;;;;;;;;;;5091001;28;20052;-69
2022/04/25 04:58:53;;;;;;;17.75;12.65;;;;;;;;;;5076366;28;20056;-70
2022/04/25 05:01:19;;;;;;;16.70;11.48;;;;;;;;;;5080707;28;20049;-70
2022/04/25 05:03:52;;;;;;;18.88;12.75;;;;;;;;;;5092023;28;20051;-70
2022/04/25 05:06:19;;;;;;;20.85;13.43;;;;;;;;;;5094744;28;20083;-70
2022/04/25 05:08:45;;;;;;;18.05;13.57;;;;;;;;;;5093740;28;20412;-70
2022/04/25 05:11:11;;;;;;;18.40;13.07;;;;;;;;;;5093962;28;20060;-70
2022/04/25 05:13:38;;;;;;;20.73;13.75;;;;;;;;;;5093608;28;20091;-70
2022/04/25 05:16:04;;;;;;;18.15;13.48;;;;;;;;;;5093462;28;20048;-70
2022/04/25 05:18:33;;;;;;;20.50;13.50;;;;;;;;;;5077536;28;20052;-70
2022/04/25 05:21:03;;;;;;;18.92;13.25;;;;;;;;;;5080426;28;20052;-71
2022/04/25 05:23:29;;;;;;;23.33;14.27;;;;;;;;;;5093979;28;20071;-72
2022/04/25 05:25:56;;;;;;;21.08;14.07;;;;;;;;;;5092750;28;20056;-73
2022/04/25 05:28:22;;;;;;;23.83;15.32;;;;;;;;;;5092478;28;20062;-75
2022/04/25 05:30:49;;;;;;;23.40;15.15;;;;;;;;;;5089780;28;20060;-74
2022/04/25 05:33:18;;;;;;;24.10;15.20;;;;;;;;;;5094051;28;20566;-74
2022/04/25 05:35:45;;;;;;;24.80;16.23;;;;;;;;;;5093145;28;20597;-75
2022/04/25 05:38:12;;;;;;;27.15;16.95;;;;;;;;;;5100914;28;20059;-73
2022/04/25 05:40:42;;;;;;;24.20;16.55;;;;;;;;;;5091214;28;20052;-73
2022/04/25 05:43:11;;;;;;;24.67;15.90;;;;;;;;;;5092318;28;20522;-70
2022/04/25 05:45:37;;;;;;;24.08;16.60;;;;;;;;;;5092490;28;20045;-72
2022/04/25 05:51:58;;;;;;;26.42;17.02;;;;;;;;;;5093251;28;20055;-71
2022/04/25 05:53:36;;;;;;;26.83;16.08;;;;;;;;;;5082860;28;20052;-71
2022/04/25 05:56:03;;;;;;;20.27;17.00;;;;;;;;;;5093007;28;20059;-70
2022/04/25 05:58:29;;;;;;;23.98;16.63;;;;;;;;;;5098011;28;20063;-71
2022/04/25 06:00:56;;;;;;;28.35;17.90;;;;;;;;;;5095572;28;20407;-72
2022/04/25 06:03:22;;;;;;;25.27;17.48;;;;;;;;;;5109459;27;20056;-70
2022/04/25 06:05:48;;;;;;;20.83;16.70;;;;;;;;;;5094141;28;20049;-71
2022/04/25 06:08:15;;;;;;;26.20;18.55;;;;;;;;;;5090971;28;20060;-71
2022/04/25 06:10:41;;;;;;;25.25;17.63;;;;;;;;;;5092065;28;20049;-72
2022/04/25 06:13:08;;;;;;;22.92;17.77;;;;;;;;;;5094220;28;20052;-70
2022/04/25 06:15:34;;;;;;;24.02;16.50;;;;;;;;;;5087516;28;20048;-70
2022/04/25 06:18:00;;;;;;;26.60;18.67;;;;;;;;;;5085327;28;20048;-70
2022/04/25 06:20:30;;;;;;;25.58;17.40;;;;;;;;;;5091192;28;20376;-70
2022/04/25 06:22:58;;;;;;;30.13;17.92;;;;;;;;;;5093825;28;20080;-71
2022/04/25 06:25:25;;;;;;;24.98;18.35;;;;;;;;;;5093877;28;20194;-71
2022/04/25 06:27:52;;;;;;;33.15;19.70;;;;;;;;;;5094036;28;20057;-71
2022/04/25 06:30:23;;;;;;;25.77;19.05;;;;;;;;;;5093266;28;20533;-70
2022/04/25 06:32:50;;;;;;;28.95;18.60;;;;;;;;;;5091720;28;20519;-70
2022/04/25 06:35:17;;;;;;;26.08;17.90;;;;;;;;;;5095605;28;20048;-72
2022/04/25 06:37:43;;;;;;;32.72;17.65;;;;;;;;;;5093486;28;20144;-70
2022/04/25 06:40:09;;;;;;;30.35;19.23;;;;;;;;;;5093118;28;20058;-72
2022/04/25 06:42:37;;;;;;;30.88;19.63;;;;;;;;;;5092705;28;20049;-70
2022/04/25 06:45:04;;;;;;;31.23;19.77;;;;;;;;;;5092650;28;20504;-70
2022/04/25 06:47:30;;;;;;;27.20;18.90;;;;;;;;;;5097217;28;20052;-71
2022/04/25 06:49:57;;;;;;;30.25;19.92;;;;;;;;;;5103378;28;20079;-70
2022/04/25 06:52:23;;;;;;;30.33;18.95;;;;;;;;;;5089661;28;20048;-71
2022/04/25 06:54:50;;;;;;;29.30;20.45;;;;;;;;;;5091359;28;20056;-71
2022/04/25 06:57:16;;;;;;;30.63;18.77;;;;;;;;;;5092808;28;20170;-72
2022/04/25 06:59:44;;;;;;;28.05;18.60;;;;;;;;;;5093015;28;20056;-72
2022/04/25 07:02:11;;;;;;;28.02;18.08;;;;;;;;;;5092635;28;20082;-68
2022/04/25 07:04:38;;;;;;;27.08;18.30;;;;;;;;;;5093083;28;20044;-69
2022/04/25 07:07:04;;;;;;;26.38;17.75;;;;;;;;;;5107127;28;20056;-69
2022/04/25 07:09:30;;;;;;;22.88;16.67;;;;;;;;;;5113206;28;20149;-70
2022/04/25 07:11:57;;;;;;;24.90;16.88;;;;;;;;;;5113688;27;20052;-70
2022/04/25 07:14:23;;;;;;;25.00;15.75;;;;;;;;;;5096822;28;20101;-70
2022/04/25 07:16:52;;;;;;;21.90;16.25;;;;;;;;;;5093357;28;20496;-71
2022/04/25 07:19:20;;;;;;;29.83;17.85;;;;;;;;;;5092301;28;20196;-72
2022/04/25 07:30:04;;;;;;;25.23;15.50;;;;;;;;;;5092630;28;20057;-71
2022/04/25 07:32:30;;;;;;;25.40;16.17;;;;;;;;;;5091366;28;20140;-73
2022/04/25 07:34:57;;;;;;;24.13;16.25;;;;;;;;;;5094170;28;20063;-69
2022/04/25 07:37:24;;;;;;;28.17;17.23;;;;;;;;;;5094677;28;20132;-71
2022/04/25 07:39:51;;;;;;;22.85;17.17;;;;;;;;;;5092862;28;20046;-68
2022/04/25 07:42:18;;;;;;;27.75;17.67;;;;;;;;;;5091893;28;20053;-68
2022/04/25 07:44:46;;;;;;;31.50;18.77;;;;;;;;;;5094091;28;20052;-71
2022/04/25 07:47:12;;;;;;;26.95;17.63;;;;;;;;;;5089203;28;20054;-71
2022/04/25 07:49:40;;;;;;;27.30;17.48;;;;;;;;;;5090311;28;20083;-70
2022/04/25 07:52:12;;;;;;;25.67;16.48;;;;;;;;;;5091562;28;20127;-70
2022/04/25 07:54:39;;;;;;;29.38;18.55;;;;;;;;;;5089335;28;20060;-70
2022/04/25 07:57:05;;;;;;;23.98;17.73;;;;;;;;;;5079026;28;20057;-70
2022/04/25 07:59:33;;;;;;;25.92;16.52;;;;;;;;;;5090229;28;20048;-69
2022/04/25 08:02:01;;;;;;;26.83;16.65;;;;;;;;;;5088805;28;20068;-71
2022/04/25 08:04:28;;;;;;;18.83;14.65;;;;;;;;;;5084022;28;20091;-70
2022/04/25 08:06:55;;;;;;;25.30;16.50;;;;;;;;;;5085834;28;20057;-69
2022/04/25 08:09:21;;;;;;;24.70;15.40;;;;;;;;;;5089470;28;21354;-69
2022/04/25 08:11:47;;;;;;;25.10;15.57;;;;;;;;;;5090765;28;20446;-70
2022/04/25 08:19:44;;;;;;;22.73;16.15;;;;;;;;;;5086119;28;20044;-69
2022/04/25 08:22:10;;;;;;;24.65;15.23;;;;;;;;;;5081277;28;20052;-71
2022/04/25 08:24:37;;;;;;;26.45;17.35;;;;;;;;;;5081504;28;20059;-70
2022/04/25 08:27:03;;;;;;;30.60;17.77;;;;;;;;;;5085260;28;20052;-69
2022/04/25 08:29:31;;;;;;;26.17;17.38;;;;;;;;;;5086446;28;20059;-69
2022/04/25 08:31:58;;;;;;;25.77;17.50;;;;;;;;;;5091902;28;20057;-68
2022/04/25 08:34:25;;;;;;;27.42;16.63;;;;;;;;;;5094588;28;20052;-68
2022/04/25 08:36:51;;;;;;;21.63;14.40;;;;;;;;;;5088817;28;20550;-67
2022/04/25 08:39:18;;;;;;;24.90;15.27;;;;;;;;;;5092634;28;20048;-69
2022/04/25 08:41:50;;;;;;;20.42;14.32;;;;;;;;;;5089493;28;20044;-68
2022/04/25 08:44:17;;;;;;;18.20;14.10;;;;;;;;;;5090837;28;20064;-70
2022/04/25 08:46:44;;;;;;;20.27;13.45;;;;;;;;;;5089685;28;21316;-69
2022/04/25 08:49:11;;;;;;;18.75;12.20;;;;;;;;;;5088717;28;20058;-68
2022/04/25 08:51:38;;;;;;;20.58;13.15;;;;;;;;;;5094837;28;20496;-68
2022/04/25 08:54:08;;;;;;;21.90;14.27;;;;;;;;;;5096130;28;20060;-68
2022/04/25 08:56:54;;;;;;;21.88;13.77;;;;;;;;;;5094571;28;20432;-67
2022/04/25 08:59:23;;;;;;;20.95;13.80;;;;;;;;;;5094521;28;20056;-67
2022/04/25 09:01:49;;;;;;;20.30;13.93;;;;;;;;;;5097202;28;20159;-68
2022/04/25 09:04:17;;;;;;;20.83;14.23;;;;;;;;;;5094966;28;20059;-68
2022/04/25 09:06:43;;;;;;;24.40;14.45;;;;;;;;;;5095205;27;20498;-70
2022/04/25 09:09:14;;;;;;;20.33;13.95;;;;;;;;;;5088551;28;20119;-71
2022/04/25 09:14:26;;;;;;;22.50;14.57;;;;;;;;;;5084178;28;20058;-70
2022/04/25 09:16:53;;;;;;;19.50;13.75;;;;;;;;;;5087656;28;20297;-69
2022/04/25 09:19:22;;;;;;;21.83;14.52;;;;;;;;;;5092056;28;20522;-71
2022/04/25 09:21:49;;;;;;;26.55;15.57;;;;;;;;;;5090838;28;20496;-70
2022/04/25 09:24:19;;;;;;;22.25;14.70;;;;;;;;;;5087036;28;20123;-69
2022/04/25 09:26:45;;;;;;;22.27;14.73;;;;;;;;;;5089685;28;20508;-69
2022/04/25 09:29:12;;;;;;;25.42;13.80;;;;;;;;;;5095170;28;20522;-70
2022/04/25 09:31:46;;;;;;;22.38;13.65;;;;;;;;;;5093862;28;20049;-68
2022/04/25 09:34:14;;;;;;;22.13;14.52;;;;;;;;;;5100649;28;20060;-69
2022/04/25 09:36:47;;;;;;;19.75;14.25;;;;;;;;;;5089363;28;20072;-69
2022/04/25 09:39:30;;;;;;;23.13;14.57;;;;;;;;;;5087302;28;20048;-70
2022/04/25 09:41:57;;;;;;;21.75;14.50;;;;;;;;;;5111602;27;20049;-72
2022/04/25 09:44:46;;;;;;;22.30;15.20;;;;;;;;;;5093466;28;20052;-69
2022/04/25 09:47:23;;;;;;;19.30;13.30;;;;;;;;;;5094730;28;20045;-68
2022/04/25 09:50:00;;;;;;;22.13;15.75;;;;;;;;;;5091926;28;20436;-68
2022/04/25 09:52:27;;;;;;;24.08;14.85;;;;;;;;;;5074307;28;20052;-69
2022/04/25 09:54:53;;;;;;;20.55;15.15;;;;;;;;;;5093261;28;20049;-69
2022/04/25 09:57:30;;;;;;;24.92;16.27;;;;;;;;;;5087840;28;20056;-70
2022/04/25 09:59:56;;;;;;;25.13;15.05;;;;;;;;;;5087873;28;20056;-70
2022/04/25 10:02:28;;;;;;;22.95;15.27;;;;;;;;;;5090027;28;20112;-69
2022/04/25 10:04:55;;;;;;;22.67;14.50;;;;;;;;;;5088811;28;20060;-69
2022/04/25 10:07:22;;;;;;;24.52;16.25;;;;;;;;;;5087429;28;20207;-69
2022/04/25 10:09:52;;;;;;;20.98;15.45;;;;;;;;;;5094041;28;20055;-70
2022/04/25 10:12:19;;;;;;;19.00;13.70;;;;;;;;;;5093976;28;20049;-70
2022/04/25 10:14:46;;;;;;;24.25;15.13;;;;;;;;;;5090305;28;20135;-69
2022/04/25 10:17:14;;;;;;;19.42;14.50;;;;;;;;;;5086817;28;20056;-70
2022/04/25 10:19:41;;;;;;;19.40;13.90;;;;;;;;;;5088615;28;20145;-70
2022/04/25 10:22:09;;;;;;;22.73;14.13;;;;;;;;;;5086550;28;20053;-69
2022/04/25 10:24:36;;;;;;;17.10;12.40;;;;;;;;;;5086780;28;20053;-70
2022/04/25 10:27:08;;;;;;;19.80;13.18;;;;;;;;;;5088499;28;20078;-71
2022/04/25 10:29:34;;;;;;;17.27;13.00;;;;;;;;;;5085540;28;20052;-70
2022/04/25 10:32:04;;;;;;;20.27;14.25;;;;;;;;;;5093519;28;20060;-71
2022/04/25 10:35:04;;;;;;;20.65;14.35;;;;;;;;;;5090894;28;20064;-70
2022/04/25 10:37:34;;;;;;;21.00;14.25;;;;;;;;;;5080881;28;20075;-72
2022/04/25 10:40:03;;;;;;;27.65;15.30;;;;;;;;;;5080896;28;20053;-70
2022/04/25 10:45:16;;;;;;;22.60;13.98;;;;;;;;;;5081461;28;20056;-70
2022/04/25 10:48:08;;;;;;;19.70;13.27;;;;;;;;;;5079326;28;20700;-70
2022/04/25 10:50:55;;;;;;;17.35;12.40;;;;;;;;;;5089271;28;20155;-70
2022/04/25 10:53:41;;;;;;;19.58;12.40;;;;;;;;;;5090781;28;20055;-69
2022/04/25 10:56:11;;;;;;;17.02;13.13;;;;;;;;;;5091973;28;20049;-71
2022/04/25 10:58:37;;;;;;;16.95;12.15;;;;;;;;;;5094472;28;20056;-71
2022/04/25 11:01:03;;;;;;;22.02;12.13;;;;;;;;;;5091458;28;20057;-70
2022/04/25 11:03:30;;;;;;;16.50;11.85;;;;;;;;;;5089271;28;20064;-70
2022/04/25 11:06:01;;;;;;;18.42;11.98;;;;;;;;;;5098033;28;20056;-71
2022/04/25 11:08:29;;;;;;;16.42;11.77;;;;;;;;;;5093276;28;20051;-70
2022/04/25 11:11:05;;;;;;;20.25;12.38;;;;;;;;;;5090962;28;20057;-68
2022/04/25 11:13:33;;;;;;;14.63;11.38;;;;;;;;;;5090085;28;20079;-69
2022/04/25 11:16:21;;;;;;;20.30;12.73;;;;;;;;;;5096917;28;20048;-68
2022/04/25 11:19:11;;;;;;;17.88;13.27;;;;;;;;;;5088019;28;20147;-68
2022/04/25 11:21:46;;;;;;;15.43;11.57;;;;;;;;;;5092065;28;20052;-69
2022/04/25 11:24:13;;;;;;;;;;;;;;;;;;5093255;28;20109;-68
2022/04/25 11:26:39;;;;;;;;;;;;;;;;;;5092342;28;45500;-69
2022/04/25 11:29:09;;;;;;;13.15;10.65;;;;;;;;;;5091857;28;46440;-68
2022/04/25 11:31:36;;;;;;;18.33;12.65;;;;;;;;;;5092542;28;20055;-69
2022/04/25 11:34:04;;;;;;;18.25;11.15;;;;;;;;;;5092291;28;20479;-68
2022/04/25 11:36:35;;;;;;;14.80;11.15;;;;;;;;;;5093775;28;20052;-69
2022/04/25 11:41:47;;;;;;;19.38;12.77;;;;;;;;;;5092527;28;20083;-67
2022/04/25 11:44:13;;;;;;;16.35;12.52;;;;;;;;;;5090244;28;20044;-68
2022/04/25 11:46:42;;;;;;;18.42;12.43;;;;;;;;;;5086443;28;20147;-69
2022/04/25 11:49:09;;;;;;;18.90;11.77;;;;;;;;;;5088786;28;20064;-70
2022/04/25 11:51:37;;;;;;;20.23;12.80;;;;;;;;;;5091211;28;20143;-69
2022/04/25 11:54:07;;;;;;;18.85;13.15;;;;;;;;;;5092499;28;20045;-69
2022/04/25 11:56:39;;;;;;;22.38;12.00;;;;;;;;;;5094656;28;20052;-69
2022/04/25 11:59:06;;;;;;;16.50;12.38;;;;;;;;;;5086289;28;20056;-72
2022/04/25 12:01:51;;;;;;;18.13;12.55;;;;;;;;;;5087501;28;20057;-70
2022/04/25 12:04:28;;;;;;;17.92;13.25;;;;;;;;;;5092503;28;20063;-70
2022/04/25 12:06:55;;;;;;;20.15;13.18;;;;;;;;;;5091290;28;20053;-70
2022/04/25 12:17:46;;;;;;;19.55;13.20;;;;;;;;;;5094295;28;20059;-70
2022/04/25 12:20:13;;;;;;;19.95;14.43;;;;;;;;;;5089414;28;20052;-70
2022/04/25 12:22:51;;;;;;;22.23;14.25;;;;;;;;;;5095298;28;20136;-71
2022/04/25 12:25:20;;;;;;;21.52;14.50;;;;;;;;;;5091667;28;20044;-71
2022/04/25 12:28:04;;;;;;;19.77;13.95;;;;;;;;;;5092633;28;20052;-72
2022/04/25 12:30:42;;;;;;;23.05;14.65;;;;;;;;;;5093478;28;20049;-70
2022/04/25 12:33:09;;;;;;;23.98;14.90;;;;;;;;;;5092499;28;20056;-71
2022/04/25 12:35:36;;;;;;;20.08;15.20;;;;;;;;;;5095216;28;20486;-70
2022/04/25 12:38:03;;;;;;;20.40;14.93;;;;;;;;;;5094405;28;20039;-70
2022/04/25 12:40:31;;;;;;;21.55;16.15;;;;;;;;;;5094210;28;20052;-70
2022/04/25 12:42:57;;;;;;;24.95;15.00;;;;;;;;;;5093284;28;20118;-70
2022/04/25 12:45:23;;;;;;;20.95;14.90;;;;;;;;;;5098270;28;20534;-70
2022/04/25 12:47:54;;;;;;;19.73;14.57;;;;;;;;;;5090760;28;20119;-71
2022/04/25 12:50:39;;;;;;;20.35;14.85;;;;;;;;;;5087884;28;20052;-70
2022/04/25 12:53:06;;;;;;;18.53;14.30;;;;;;;;;;5087062;28;20059;-71
2022/04/25 12:56:02;;;;;;;19.00;14.30;;;;;;;;;;5088494;28;20284;-71
2022/04/25 12:58:32;;;;;;;20.27;14.25;;;;;;;;;;5071289;28;20053;-70
2022/04/25 13:01:00;;;;;;;22.10;14.07;;;;;;;;;;5093180;28;20088;-70
2022/04/25 13:04:03;;;;;;;21.33;15.38;;;;;;;;;;5085389;27;20071;-70
2022/04/25 13:06:29;;;;;;;22.63;15.32;;;;;;;;;;5090537;28;20048;-71
2022/04/25 13:08:56;;;;;;;19.83;15.02;;;;;;;;;;5095959;28;20053;-69
2022/04/25 13:11:42;;;;;;;19.05;14.82;;;;;;;;;;5094540;27;20469;-70
2022/04/25 13:14:09;;;;;;;21.45;14.82;;;;;;;;;;5094689;28;20067;-70
2022/04/25 13:16:35;;;;;;;21.05;16.17;;;;;;;;;;5092174;28;20048;-71
2022/04/25 13:19:03;;;;;;;22.98;14.52;;;;;;;;;;5097735;28;20061;-71
2022/04/25 13:21:29;;;;;;;19.50;14.32;;;;;;;;;;5089615;28;21255;-69
2022/04/25 13:23:55;;;;;;;24.67;15.68;;;;;;;;;;5088892;28;20063;-69
2022/04/25 13:26:22;;;;;;;21.10;14.40;;;;;;;;;;5092804;28;20055;-70
2022/04/25 13:28:49;;;;;;;22.30;15.55;;;;;;;;;;5091773;28;20059;-70
2022/04/25 13:31:15;;;;;;;26.48;16.05;;;;;;;;;;5094556;28;20062;-69
2022/04/25 13:33:42;;;;;;;25.52;14.95;;;;;;;;;;5093408;28;20057;-70
2022/04/25 13:36:08;;;;;;;25.35;15.80;;;;;;;;;;5089779;28;20048;-70
2022/04/25 13:38:35;;;;;;;24.20;16.35;;;;;;;;;;5089482;28;20053;-70
2022/04/25 13:41:02;;;;;;;21.77;16.58;;;;;;;;;;5086217;28;20049;-69
2022/04/25 13:43:29;;;;;;;23.98;16.63;;;;;;;;;;5099913;27;20052;-69
2022/04/25 13:45:58;;;;;;;24.88;17.08;;;;;;;;;;5094862;28;20048;-70
2022/04/25 13:48:24;;;;;;;27.98;18.98;;;;;;;;;;5093975;28;20054;-69
2022/04/25 13:50:51;;;;;;;24.15;16.45;;;;;;;;;;5088603;28;20063;-71
2022/04/25 13:53:18;;;;;;;24.30;16.75;;;;;;;;;;5085110;28;20044;-72
2022/04/25 13:55:46;;;;;;;24.02;16.42;;;;;;;;;;5085363;28;20068;-70
2022/04/25 13:58:13;;;;;;;26.45;15.90;;;;;;;;;;5089626;28;20143;-70
2022/04/25 14:00:39;;;;;;;23.15;17.20;;;;;;;;;;5085292;28;20057;-71
2022/04/25 14:03:06;;;;;;;28.15;17.08;;;;;;;;;;5087100;28;20048;-72
2022/04/25 14:05:36;;;;;;;29.08;17.63;;;;;;;;;;5084517;28;20139;-71
2022/04/25 14:08:02;;;;;;;23.67;16.77;;;;;;;;;;5092666;28;20044;-71
2022/04/25 14:10:28;;;;;;;25.77;17.15;;;;;;;;;;5095952;28;20074;-70
2022/04/25 14:12:54;;;;;;;24.58;16.23;;;;;;;;;;5093152;28;20500;-70
2022/04/25 14:15:21;;;;;;;23.85;16.58;;;;;;;;;;5087097;28;20060;-71
2022/04/25 14:17:48;;;;;;;28.65;17.50;;;;;;;;;;5087731;28;20048;-71
2022/04/25 14:20:14;;;;;;;27.50;15.88;;;;;;;;;;5086224;28;20052;-72
2022/04/25 14:22:41;;;;;;;24.48;17.10;;;;;;;;;;5087964;28;20057;-71
2022/04/25 14:25:08;;;;;;;23.75;16.23;;;;;;;;;;5088209;28;20052;-70
2022/04/25 14:27:37;;;;;;;27.77;18.02;;;;;;;;;;5096034;28;20052;-71
2022/04/25 14:30:05;;;;;;;25.67;19.00;;;;;;;;;;5086409;28;20049;-71
2022/04/25 14:32:32;;;;;;;22.23;16.08;;;;;;;;;;5085595;28;20478;-70
2022/04/25 14:34:59;;;;;;;21.95;15.63;;;;;;;;;;5085661;28;20461;-71
2022/04/25 14:37:25;;;;;;;23.02;16.60;;;;;;;;;;5091196;28;20099;-72
2022/04/25 14:39:51;;;;;;;24.98;17.55;;;;;;;;;;5088426;28;20059;-68
2022/04/25 14:42:17;;;;;;;21.92;15.25;;;;;;;;;;5092041;28;20062;-69
2022/04/25 14:44:49;;;;;;;23.17;16.27;;;;;;;;;;5090461;28;20056;-68
2022/04/25 14:47:15;;;;;;;23.08;16.23;;;;;;;;;;5093423;28;20053;-68
2022/04/25 14:55:13;;;;;;;28.73;17.00;;;;;;;;;;5100287;27;20416;-69
2022/04/25 14:57:40;;;;;;;23.42;17.17;;;;;;;;;;5086136;28;20056;-68
2022/04/25 15:00:07;;;;;;;23.08;16.70;;;;;;;;;;5118297;27;20062;-68
2022/04/25 15:02:33;;;;;;;25.00;17.27;;;;;;;;;;5090235;28;20163;-68
2022/04/25 15:05:00;;;;;;;24.23;16.98;;;;;;;;;;5095276;28;20060;-69
2022/04/25 15:07:26;;;;;;;23.70;17.02;;;;;;;;;;5093758;28;20087;-68
2022/04/25 15:09:52;;;;;;;26.13;17.00;;;;;;;;;;5092346;28;20052;-67
2022/04/25 15:12:19;;;;;;;22.95;16.52;;;;;;;;;;5086897;28;20471;-68